sensor_id;sensor_type;location;lat;lon;timestamp;pressure;altitude;pressure_sealevel;temperature;humidity
22743;BME280;11538;48.884;8.696;2022-12-07T00:01:30;98865.69;;;4.37;100.00
22743;BME280;11538;48.884;8.696;2022-12-07T00:03:59;98861.94;;;4.38;100.00
22743;BME280;11538;48.884;8.696;2022-12-07T00:06:37;98875.94;;;4.40;100.00
22743;BME280;11538;48.884;8.696;2022-12-07T00:09:06;98866.75;;;4.36;100.00
22743;BME280;11538;48.884;8.696;2022-12-07T00:11:33;98863.00;;;4.37;100.00
22743;BME280;11538;48.884;8.696;2022-12-07T00:14:03;98861.69;;;4.39;100.00
22743;BME280;11538;48.884;8.696;2022-12-07T00:16:32;98861.13;;;4.37;100.00
22743;BME280;11538;48.884;8.696;2022-12-07T00:19:00;98860.00;;;4.33;100.00
22743;BME280;11538;48.884;8.696;2022-12-07T00:21:32;98852.47;;;4.30;100.00
22743;BME280;11538;48.884;8.696;2022-12-07T00:24:00;98851.41;;;4.31;100.00
22743;BME280;11538;48.884;8.696;2022-12-07T00:26:29;98855.97;;;4.31;100.00
22743;BME280;11538;48.884;8.696;2022-12-07T00:28:59;98856.50;;;4.28;100.00
22743;BME280;11538;48.884;8.696;2022-12-07T00:31:28;98854.38;;;4.30;100.00
22743;BME280;11538;48.884;8.696;2022-12-07T00:33:57;98861.91;;;4.33;100.00
22743;BME280;11538;48.884;8.696;2022-12-07T00:36:24;98852.75;;;4.29;100.00
22743;BME280;11538;48.884;8.696;2022-12-07T00:38:57;98855.44;;;4.29;100.00
22743;BME280;11538;48.884;8.696;2022-12-07T00:41:26;98851.91;;;4.28;100.00
22743;BME280;11538;48.884;8.696;2022-12-07T00:43:53;98844.41;;;4.30;100.00
22743;BME280;11538;48.884;8.696;2022-12-07T00:46:21;98856.50;;;4.28;100.00
22743;BME280;11538;48.884;8.696;2022-12-07T00:48:49;98856.72;;;4.26;100.00
22743;BME280;11538;48.884;8.696;2022-12-07T00:51:17;98859.69;;;4.24;100.00
22743;BME280;11538;48.884;8.696;2022-12-07T00:53:45;98857.53;;;4.21;100.00
22743;BME280;11538;48.884;8.696;2022-12-07T00:56:15;98865.84;;;4.25;100.00
22743;BME280;11538;48.884;8.696;2022-12-07T00:58:42;98864.25;;;4.24;100.00
22743;BME280;11538;48.884;8.696;2022-12-07T01:01:09;98861.56;;;4.24;100.00
22743;BME280;11538;48.884;8.696;2022-12-07T01:03:37;98855.94;;;4.26;100.00
22743;BME280;11538;48.884;8.696;2022-12-07T01:06:04;98846.50;;;4.23;100.00
22743;BME280;11538;48.884;8.696;2022-12-07T01:08:31;98852.94;;;4.22;100.00
22743;BME280;11538;48.884;8.696;2022-12-07T01:11:03;98858.03;;;4.18;100.00
22743;BME280;11538;48.884;8.696;2022-12-07T01:13:32;98854.88;;;4.27;100.00
22743;BME280;11538;48.884;8.696;2022-12-07T01:16:01;98856.50;;;4.28;100.00
22743;BME280;11538;48.884;8.696;2022-12-07T01:18:30;98858.13;;;4.29;100.00
22743;BME280;11538;48.884;8.696;2022-12-07T01:21:02;98858.13;;;4.29;100.00
22743;BME280;11538;48.884;8.696;2022-12-07T01:23:30;98863.47;;;4.29;100.00
22743;BME280;11538;48.884;8.696;2022-12-07T01:25:58;98865.91;;;4.30;100.00
22743;BME280;11538;48.884;8.696;2022-12-07T01:28:26;98864.78;;;4.26;100.00
22743;BME280;11538;48.884;8.696;2022-12-07T01:31:07;98868.78;;;4.18;100.00
22743;BME280;11538;48.884;8.696;2022-12-07T01:33:36;98872.53;;;4.17;100.00
22743;BME280;11538;48.884;8.696;2022-12-07T01:36:06;98870.38;;;4.19;100.00
22743;BME280;11538;48.884;8.696;2022-12-07T01:38:33;98872.00;;;4.20;100.00
22743;BME280;11538;48.884;8.696;2022-12-07T01:41:01;98874.69;;;4.20;100.00
22743;BME280;11538;48.884;8.696;2022-12-07T01:43:30;98882.69;;;4.15;100.00
22743;BME280;11538;48.884;8.696;2022-12-07T01:45:58;98882.44;;;4.17;100.00
22743;BME280;11538;48.884;8.696;2022-12-07T01:48:36;98880.31;;;4.19;100.00
22743;BME280;11538;48.884;8.696;2022-12-07T01:51:09;98881.19;;;4.24;100.00
22743;BME280;11538;48.884;8.696;2022-12-07T01:53:41;98881.19;;;4.24;100.00
22743;BME280;11538;48.884;8.696;2022-12-07T01:56:12;98879.03;;;4.27;100.00
22743;BME280;11538;48.884;8.696;2022-12-07T01:58:44;98871.75;;;4.22;100.00
22743;BME280;11538;48.884;8.696;2022-12-07T02:01:11;98871.47;;;4.18;100.00
22743;BME280;11538;48.884;8.696;2022-12-07T02:03:40;98858.53;;;4.15;100.00
22743;BME280;11538;48.884;8.696;2022-12-07T02:06:08;98864.97;;;4.14;100.00
22743;BME280;11538;48.884;8.696;2022-12-07T02:08:36;98863.91;;;4.15;100.00
22743;BME280;11538;48.884;8.696;2022-12-07T02:11:05;98860.69;;;4.13;100.00
22743;BME280;11538;48.884;8.696;2022-12-07T02:13:35;98859.84;;;4.13;100.00
22743;BME280;11538;48.884;8.696;2022-12-07T02:18:58;98864.94;;;4.09;100.00
22743;BME280;11538;48.884;8.696;2022-12-07T02:21:53;98867.06;;;4.07;100.00
22743;BME280;11538;48.884;8.696;2022-12-07T02:27:36;98854.75;;;4.11;100.00
22743;BME280;11538;48.884;8.696;2022-12-07T02:30:09;98851.50;;;4.09;100.00
22743;BME280;11538;48.884;8.696;2022-12-07T02:32:44;98848.81;;;4.09;100.00
22743;BME280;11538;48.884;8.696;2022-12-07T02:38:31;98842.34;;;4.05;100.00
22743;BME280;11538;48.884;8.696;2022-12-07T02:41:14;98843.13;;;4.05;100.00
22743;BME280;11538;48.884;8.696;2022-12-07T02:43:45;98847.22;;;4.08;100.00
22743;BME280;11538;48.884;8.696;2022-12-07T02:46:17;98845.06;;;4.10;100.00
22743;BME280;11538;48.884;8.696;2022-12-07T02:48:49;98838.09;;;4.09;100.00
22743;BME280;11538;48.884;8.696;2022-12-07T02:51:17;98838.09;;;4.09;100.00
22743;BME280;11538;48.884;8.696;2022-12-07T02:53:44;98834.63;;;4.14;100.00
22743;BME280;11538;48.884;8.696;2022-12-07T03:01:55;98824.94;;;4.13;100.00
22743;BME280;11538;48.884;8.696;2022-12-07T03:07:05;98830.31;;;4.13;100.00
22743;BME280;11538;48.884;8.696;2022-12-07T03:09:43;98828.94;;;4.05;100.00
22743;BME280;11538;48.884;8.696;2022-12-07T03:12:19;98831.81;;;3.98;100.00
22743;BME280;11538;48.884;8.696;2022-12-07T03:15:03;98837.38;;;3.91;100.00
22743;BME280;11538;48.884;8.696;2022-12-07T03:17:35;98826.41;;;3.93;100.00
22743;BME280;11538;48.884;8.696;2022-12-07T03:20:06;98834.13;;;3.89;100.00
22743;BME280;11538;48.884;8.696;2022-12-07T03:22:35;98817.22;;;3.89;100.00
22743;BME280;11538;48.884;8.696;2022-12-07T03:25:06;98818.84;;;3.90;100.00
22743;BME280;11538;48.884;8.696;2022-12-07T03:27:40;98816.22;;;3.95;100.00
22743;BME280;11538;48.884;8.696;2022-12-07T03:30:21;98811.72;;;4.01;100.00
22743;BME280;11538;48.884;8.696;2022-12-07T03:33:13;98810.56;;;3.97;100.00
22743;BME280;11538;48.884;8.696;2022-12-07T03:35:52;98816.97;;;3.90;100.00
22743;BME280;11538;48.884;8.696;2022-12-07T03:38:24;98815.34;;;3.89;100.00
22743;BME280;11538;48.884;8.696;2022-12-07T03:40:59;98815.34;;;3.89;100.00
22743;BME280;11538;48.884;8.696;2022-12-07T03:43:30;98816.72;;;3.92;100.00
22743;BME280;11538;48.884;8.696;2022-12-07T03:46:15;98805.72;;;3.93;100.00
22743;BME280;11538;48.884;8.696;2022-12-07T03:49:16;98804.97;;;3.98;100.00
22743;BME280;11538;48.884;8.696;2022-12-07T03:57:01;98800.44;;;3.99;100.00
22743;BME280;11538;48.884;8.696;2022-12-07T03:59:29;98796.38;;;3.96;100.00
22743;BME280;11538;48.884;8.696;2022-12-07T04:02:02;98787.97;;;3.87;100.00
22743;BME280;11538;48.884;8.696;2022-12-07T04:04:29;98786.34;;;3.86;100.00
22743;BME280;11538;48.884;8.696;2022-12-07T04:06:56;98780.94;;;3.81;100.00
22743;BME280;11538;48.884;8.696;2022-12-07T04:09:23;98784.72;;;3.85;100.00
22743;BME280;11538;48.884;8.696;2022-12-07T04:11:50;98781.00;;;3.91;100.00
22743;BME280;11538;48.884;8.696;2022-12-07T04:14:17;98782.13;;;3.95;100.00
22743;BME280;11538;48.884;8.696;2022-12-07T04:16:48;98782.19;;;4.01;100.00
22743;BME280;11538;48.884;8.696;2022-12-07T04:19:17;98785.94;;;4.00;96.70
22743;BME280;11538;48.884;8.696;2022-12-07T04:21:45;98788.63;;;4.00;95.52
22743;BME280;11538;48.884;8.696;2022-12-07T04:24:14;98795.91;;;4.04;95.83
22743;BME280;11538;48.884;8.696;2022-12-07T04:26:42;98790.25;;;4.01;96.44
22743;BME280;11538;48.884;8.696;2022-12-07T04:29:10;98787.25;;;3.97;96.64
22743;BME280;11538;48.884;8.696;2022-12-07T04:31:37;98779.72;;;3.94;97.71
22743;BME280;11538;48.884;8.696;2022-12-07T04:34:04;98790.94;;;3.91;98.51
22743;BME280;11538;48.884;8.696;2022-12-07T04:36:32;98796.56;;;3.89;99.44
22743;BME280;11538;48.884;8.696;2022-12-07T04:38:59;98801.13;;;3.89;100.00
22743;BME280;11538;48.884;8.696;2022-12-07T04:41:26;98796.00;;;3.87;100.00
22743;BME280;11538;48.884;8.696;2022-12-07T04:43:55;98797.91;;;3.87;100.00
22743;BME280;11538;48.884;8.696;2022-12-07T04:46:23;98804.56;;;3.84;100.00
22743;BME280;11538;48.884;8.696;2022-12-07T04:48:51;98801.34;;;3.82;100.00
22743;BME280;11538;48.884;8.696;2022-12-07T04:51:21;98801.03;;;3.78;100.00
22743;BME280;11538;48.884;8.696;2022-12-07T04:53:48;98806.09;;;3.75;100.00
22743;BME280;11538;48.884;8.696;2022-12-07T04:56:16;98809.28;;;3.72;100.00
22743;BME280;11538;48.884;8.696;2022-12-07T04:58:44;98806.59;;;3.72;100.00
22743;BME280;11538;48.884;8.696;2022-12-07T05:01:12;98815.22;;;3.74;100.00
22743;BME280;11538;48.884;8.696;2022-12-07T05:03:39;98814.41;;;3.73;100.00
22743;BME280;11538;48.884;8.696;2022-12-07T05:06:06;98813.03;;;3.71;100.00
22743;BME280;11538;48.884;8.696;2022-12-07T05:08:39;98819.41;;;3.64;100.00
22743;BME280;11538;48.884;8.696;2022-12-07T05:11:07;98822.31;;;3.58;100.00
22743;BME280;11538;48.884;8.696;2022-12-07T05:13:34;98823.38;;;3.57;100.00
22743;BME280;11538;48.884;8.696;2022-12-07T05:16:02;98817.22;;;3.61;100.00
22743;BME280;11538;48.884;8.696;2022-12-07T05:18:29;98815.63;;;3.60;100.00
22743;BME280;11538;48.884;8.696;2022-12-07T05:20:55;98811.47;;;3.47;100.00
22743;BME280;11538;48.884;8.696;2022-12-07T05:23:22;98820.22;;;3.38;100.00
22743;BME280;11538;48.884;8.696;2022-12-07T05:25:49;98808.41;;;3.39;100.00
22743;BME280;11538;48.884;8.696;2022-12-07T05:28:16;98801.72;;;3.36;100.00
22743;BME280;11538;48.884;8.696;2022-12-07T05:30:43;98808.31;;;3.28;100.00
22743;BME280;11538;48.884;8.696;2022-12-07T05:33:09;98805.13;;;3.31;100.00
22743;BME280;11538;48.884;8.696;2022-12-07T05:35:36;98805.06;;;3.26;100.00
22743;BME280;11538;48.884;8.696;2022-12-07T05:38:04;98809.03;;;3.24;100.00
22743;BME280;11538;48.884;8.696;2022-12-07T05:40:31;98810.66;;;3.25;100.00
22743;BME280;11538;48.884;8.696;2022-12-07T05:42:58;98804.00;;;3.27;100.00
22743;BME280;11538;48.884;8.696;2022-12-07T05:45:30;98809.59;;;3.26;100.00
22743;BME280;11538;48.884;8.696;2022-12-07T05:47:57;98811.00;;;3.28;100.00
22743;BME280;11538;48.884;8.696;2022-12-07T05:50:24;98815.03;;;3.31;100.00
22743;BME280;11538;48.884;8.696;2022-12-07T05:52:51;98806.19;;;3.30;100.00
22743;BME280;11538;48.884;8.696;2022-12-07T05:55:18;98818.03;;;3.34;100.00
22743;BME280;11538;48.884;8.696;2022-12-07T05:57:44;98811.59;;;3.35;100.00
22743;BME280;11538;48.884;8.696;2022-12-07T06:00:32;98807.81;;;3.31;100.00
22743;BME280;11538;48.884;8.696;2022-12-07T06:02:59;98807.56;;;3.33;100.00
22743;BME280;11538;48.884;8.696;2022-12-07T06:05:26;98809.38;;;3.27;100.00
22743;BME280;11538;48.884;8.696;2022-12-07T06:07:52;98810.88;;;3.18;100.00
22743;BME280;11538;48.884;8.696;2022-12-07T06:10:19;98813.78;;;3.16;100.00
22743;BME280;11538;48.884;8.696;2022-12-07T06:12:46;98806.25;;;3.13;100.00
22743;BME280;11538;48.884;8.696;2022-12-07T06:15:13;98810.31;;;3.16;100.00
22743;BME280;11538;48.884;8.696;2022-12-07T06:17:40;98806.50;;;3.12;100.00
22743;BME280;11538;48.884;8.696;2022-12-07T06:20:07;98805.47;;;3.13;100.00
22743;BME280;11538;48.884;8.696;2022-12-07T06:22:34;98802.84;;;3.18;100.00
22743;BME280;11538;48.884;8.696;2022-12-07T06:25:00;98812.00;;;3.22;100.00
22743;BME280;11538;48.884;8.696;2022-12-07T06:27:34;98801.84;;;3.24;100.00
22743;BME280;11538;48.884;8.696;2022-12-07T06:30:03;98808.00;;;3.25;100.00
22743;BME280;11538;48.884;8.696;2022-12-07T06:32:33;98802.44;;;3.31;100.00
22743;BME280;11538;48.884;8.696;2022-12-07T06:35:00;98810.25;;;3.33;100.00
22743;BME280;11538;48.884;8.696;2022-12-07T06:37:27;98799.75;;;3.31;100.00
22743;BME280;11538;48.884;8.696;2022-12-07T06:39:54;98811.09;;;3.39;100.00
22743;BME280;11538;48.884;8.696;2022-12-07T06:42:20;98807.41;;;3.45;100.00
22743;BME280;11538;48.884;8.696;2022-12-07T06:44:47;98813.84;;;3.44;100.00
22743;BME280;11538;48.884;8.696;2022-12-07T06:47:14;98801.25;;;3.44;100.00
22743;BME280;11538;48.884;8.696;2022-12-07T06:50:01;98807.72;;;3.48;100.00
22743;BME280;11538;48.884;8.696;2022-12-07T06:52:28;98807.47;;;3.50;100.00
22743;BME280;11538;48.884;8.696;2022-12-07T06:54:55;98803.53;;;3.58;98.99
22743;BME280;11538;48.884;8.696;2022-12-07T06:57:22;98806.00;;;3.64;97.83
22743;BME280;11538;48.884;8.696;2022-12-07T06:59:49;98800.94;;;3.68;97.63
22743;BME280;11538;48.884;8.696;2022-12-07T07:02:15;98799.56;;;3.65;97.82
22743;BME280;11538;48.884;8.696;2022-12-07T07:04:42;98803.63;;;3.68;96.50
22743;BME280;11538;48.884;8.696;2022-12-07T07:07:09;98810.84;;;3.68;95.43
22743;BME280;11538;48.884;8.696;2022-12-07T07:09:36;98815.22;;;3.74;95.07
22743;BME280;11538;48.884;8.696;2022-12-07T07:12:03;98809.09;;;3.78;93.17
22743;BME280;11538;48.884;8.696;2022-12-07T07:14:30;98824.41;;;3.83;92.35
22743;BME280;11538;48.884;8.696;2022-12-07T07:16:57;98817.19;;;3.84;90.92
22743;BME280;11538;48.884;8.696;2022-12-07T07:19:23;98820.38;;;3.80;90.26
22743;BME280;11538;48.884;8.696;2022-12-07T07:21:50;98815.31;;;3.84;90.25
22743;BME280;11538;48.884;8.696;2022-12-07T07:24:17;98816.91;;;3.85;89.99
22743;BME280;11538;48.884;8.696;2022-12-07T07:26:43;98819.66;;;3.90;90.24
22743;BME280;11538;48.884;8.696;2022-12-07T07:29:10;98819.97;;;3.94;89.72
22743;BME280;11538;48.884;8.696;2022-12-07T07:31:37;98811.59;;;3.90;89.71
22743;BME280;11538;48.884;8.696;2022-12-07T07:34:04;98811.34;;;3.92;90.30
22743;BME280;11538;48.884;8.696;2022-12-07T07:36:30;98816.47;;;3.93;90.35
22743;BME280;11538;48.884;8.696;2022-12-07T07:38:57;98816.47;;;3.93;90.29
22743;BME280;11538;48.884;8.696;2022-12-07T07:41:24;98816.78;;;3.97;89.84
22743;BME280;11538;48.884;8.696;2022-12-07T07:43:51;98812.22;;;3.98;88.96
22743;BME280;11538;48.884;8.696;2022-12-07T07:46:18;98812.22;;;3.98;88.19
22743;BME280;11538;48.884;8.696;2022-12-07T07:48:44;98813.88;;;4.04;87.66
22743;BME280;11538;48.884;8.696;2022-12-07T07:51:11;98808.56;;;4.09;87.84
22743;BME280;11538;48.884;8.696;2022-12-07T07:53:38;98815.03;;;4.13;86.79
22743;BME280;11538;48.884;8.696;2022-12-07T07:56:05;98826.06;;;4.17;86.33
22743;BME280;11538;48.884;8.696;2022-12-07T07:58:31;98831.69;;;4.15;86.04
22743;BME280;11538;48.884;8.696;2022-12-07T08:01:04;98839.47;;;4.17;86.11
22743;BME280;11538;48.884;8.696;2022-12-07T08:03:31;98827.94;;;4.16;86.16
22743;BME280;11538;48.884;8.696;2022-12-07T08:05:58;98822.63;;;4.21;86.20
22743;BME280;11538;48.884;8.696;2022-12-07T08:08:25;98827.19;;;4.26;86.07
22743;BME280;11538;48.884;8.696;2022-12-07T08:10:52;98824.47;;;4.21;85.90
22743;BME280;11538;48.884;8.696;2022-12-07T08:13:18;98828.25;;;4.25;86.09
22743;BME280;11538;48.884;8.696;2022-12-07T08:15:47;98825.06;;;4.28;86.26
22743;BME280;11538;48.884;8.696;2022-12-07T08:18:15;98831.84;;;4.36;86.61
22743;BME280;11538;48.884;8.696;2022-12-07T08:20:42;98824.63;;;4.42;86.32
22743;BME280;11538;48.884;8.696;2022-12-07T08:23:10;98822.50;;;4.44;86.32
22743;BME280;11538;48.884;8.696;2022-12-07T08:25:37;98833.00;;;4.45;86.90
22743;BME280;11538;48.884;8.696;2022-12-07T08:28:04;98831.91;;;4.46;87.17
22743;BME280;11538;48.884;8.696;2022-12-07T08:30:32;98837.84;;;4.48;87.38
22743;BME280;11538;48.884;8.696;2022-12-07T08:32:59;98838.69;;;4.54;87.80
22743;BME280;11538;48.884;8.696;2022-12-07T08:35:26;98836.31;;;4.63;87.67
22743;BME280;11538;48.884;8.696;2022-12-07T08:37:53;98850.31;;;4.65;87.29
22743;BME280;11538;48.884;8.696;2022-12-07T08:40:20;98845.25;;;4.68;87.08
22743;BME280;11538;48.884;8.696;2022-12-07T08:42:51;98851.72;;;4.73;87.22
22743;BME280;11538;48.884;8.696;2022-12-07T08:45:18;98861.66;;;4.72;87.54
22743;BME280;11538;48.884;8.696;2022-12-07T08:48:00;98848.72;;;4.69;88.66
22743;BME280;11538;48.884;8.696;2022-12-07T08:50:31;98855.69;;;4.65;89.12
22743;BME280;11538;48.884;8.696;2022-12-07T08:52:59;98860.25;;;4.64;89.58
22743;BME280;11538;48.884;8.696;2022-12-07T08:55:27;98854.41;;;4.73;90.29
22743;BME280;11538;48.884;8.696;2022-12-07T08:57:55;98856.31;;;4.82;90.28
22743;BME280;11538;48.884;8.696;2022-12-07T09:00:23;98858.22;;;4.82;88.95
22743;BME280;11538;48.884;8.696;2022-12-07T09:02:50;98854.72;;;4.81;89.52
22743;BME280;11538;48.884;8.696;2022-12-07T09:05:17;98852.28;;;4.80;90.22
22743;BME280;11538;48.884;8.696;2022-12-07T09:07:46;98853.88;;;4.76;90.70
22743;BME280;11538;48.884;8.696;2022-12-07T09:10:14;98853.56;;;4.72;91.73
22743;BME280;11538;48.884;8.696;2022-12-07T09:12:41;98853.56;;;4.67;94.00
22743;BME280;11538;48.884;8.696;2022-12-07T09:15:08;98852.44;;;4.63;95.07
22743;BME280;11538;48.884;8.696;2022-12-07T09:17:36;98852.97;;;4.60;96.12
22743;BME280;11538;48.884;8.696;2022-12-07T09:20:04;98859.91;;;4.56;97.93
22743;BME280;11538;48.884;8.696;2022-12-07T09:22:32;98850.84;;;4.62;99.36
22743;BME280;11538;48.884;8.696;2022-12-07T09:25:00;98856.75;;;4.64;98.91
22743;BME280;11538;48.884;8.696;2022-12-07T09:27:27;98846.50;;;4.56;98.65
22743;BME280;11538;48.884;8.696;2022-12-07T09:29:54;98854.78;;;4.54;100.00
22743;BME280;11538;48.884;8.696;2022-12-07T09:32:21;98850.00;;;4.61;100.00
22743;BME280;11538;48.884;8.696;2022-12-07T09:34:48;98853.50;;;4.62;100.00
22743;BME280;11538;48.884;8.696;2022-12-07T09:37:15;98860.72;;;4.56;100.00
22743;BME280;11538;48.884;8.696;2022-12-07T09:39:42;98860.16;;;4.54;100.00
22743;BME280;11538;48.884;8.696;2022-12-07T09:42:27;98861.00;;;4.54;100.00
22743;BME280;11538;48.884;8.696;2022-12-07T09:44:55;98866.09;;;4.56;100.00
22743;BME280;11538;48.884;8.696;2022-12-07T09:47:23;98858.81;;;4.51;100.00
22743;BME280;11538;48.884;8.696;2022-12-07T09:49:49;98863.34;;;4.46;100.00
22743;BME280;11538;48.884;8.696;2022-12-07T09:52:19;98857.72;;;4.47;100.00
22743;BME280;11538;48.884;8.696;2022-12-07T09:54:49;98849.91;;;4.46;100.00
22743;BME280;11538;48.884;8.696;2022-12-07T09:57:18;98856.66;;;4.48;100.00
22743;BME280;11538;48.884;8.696;2022-12-07T09:59:48;98847.50;;;4.44;100.00
22743;BME280;11538;48.884;8.696;2022-12-07T10:02:25;98842.13;;;4.44;100.00
22743;BME280;11538;48.884;8.696;2022-12-07T10:04:55;98840.56;;;4.53;100.00
22743;BME280;11538;48.884;8.696;2022-12-07T10:07:23;98838.94;;;4.52;100.00
22743;BME280;11538;48.884;8.696;2022-12-07T10:09:50;98842.34;;;4.43;100.00
22743;BME280;11538;48.884;8.696;2022-12-07T10:12:17;98845.47;;;4.29;100.00
22743;BME280;11538;48.884;8.696;2022-12-07T10:15:01;98836.03;;;4.21;100.00
22743;BME280;11538;48.884;8.696;2022-12-07T10:17:38;98833.34;;;4.21;100.00
22743;BME280;11538;48.884;8.696;2022-12-07T10:20:30;98833.91;;;4.23;100.00
22743;BME280;11538;48.884;8.696;2022-12-07T10:23:03;98829.06;;;4.20;100.00
22743;BME280;11538;48.884;8.696;2022-12-07T10:25:34;98829.84;;;4.21;100.00
22743;BME280;11538;48.884;8.696;2022-12-07T10:30:59;98828.03;;;4.27;100.00
22743;BME280;11538;48.884;8.696;2022-12-07T10:33:51;98822.63;;;4.21;100.00
22743;BME280;11538;48.884;8.696;2022-12-07T10:36:24;98822.91;;;4.25;100.00
22743;BME280;11538;48.884;8.696;2022-12-07T10:38:53;98822.13;;;4.30;100.00
22743;BME280;11538;48.884;8.696;2022-12-07T10:41:24;98820.84;;;4.37;100.00
22743;BME280;11538;48.884;8.696;2022-12-07T10:43:56;98811.47;;;4.40;100.00
22743;BME280;11538;48.884;8.696;2022-12-07T10:46:42;98820.88;;;4.43;100.00
22743;BME280;11538;48.884;8.696;2022-12-07T10:49:38;98817.91;;;4.39;100.00
22743;BME280;11538;48.884;8.696;2022-12-07T10:55:15;98808.50;;;4.42;100.00
22743;BME280;11538;48.884;8.696;2022-12-07T11:07:13;98797.31;;;4.55;100.00
22743;BME280;11538;48.884;8.696;2022-12-07T11:09:36;98796.03;;;4.63;100.00
22743;BME280;11538;48.884;8.696;2022-12-07T11:25:49;98780.47;;;4.70;100.00
22743;BME280;11538;48.884;8.696;2022-12-07T11:31:35;98775.09;;;4.65;100.00
22743;BME280;11538;48.884;8.696;2022-12-07T11:36:54;98773.25;;;4.71;100.00
22743;BME280;11538;48.884;8.696;2022-12-07T11:39:26;98769.19;;;4.68;100.00
22743;BME280;11538;48.884;8.696;2022-12-07T11:42:06;98759.53;;;4.72;100.00
22743;BME280;11538;48.884;8.696;2022-12-07T11:50:27;98756.88;;;4.77;100.00
22743;BME280;11538;48.884;8.696;2022-12-07T11:53:05;98757.19;;;4.86;100.00
22743;BME280;11538;48.884;8.696;2022-12-07T12:03:49;98747.78;;;4.89;100.00
22743;BME280;11538;48.884;8.696;2022-12-07T12:06:20;98749.91;;;4.87;100.00
22743;BME280;11538;48.884;8.696;2022-12-07T12:15:22;98738.34;;;4.76;100.00
22743;BME280;11538;48.884;8.696;2022-12-07T12:20:52;98735.88;;;4.69;100.00
22743;BME280;11538;48.884;8.696;2022-12-07T12:23:22;98738.88;;;4.73;100.00
22743;BME280;11538;48.884;8.696;2022-12-07T12:25:57;98728.66;;;4.75;100.00
22743;BME280;11538;48.884;8.696;2022-12-07T12:28:30;98731.16;;;4.97;100.00
22743;BME280;11538;48.884;8.696;2022-12-07T12:33:37;98730.91;;;5.04;100.00
22743;BME280;11538;48.884;8.696;2022-12-07T12:36:24;98725.75;;;4.92;100.00
22743;BME280;11538;48.884;8.696;2022-12-07T12:46:56;98735.75;;;5.02;100.00
22743;BME280;11538;48.884;8.696;2022-12-07T12:49:38;98736.00;;;5.05;100.00
22743;BME280;11538;48.884;8.696;2022-12-07T12:55:17;98727.91;;;4.95;100.00
22743;BME280;11538;48.884;8.696;2022-12-07T13:00:47;98719.06;;;5.00;100.00
22743;BME280;11538;48.884;8.696;2022-12-07T13:03:27;98716.38;;;5.05;100.00
22743;BME280;11538;48.884;8.696;2022-12-07T13:08:51;98710.22;;;5.09;100.00
22743;BME280;11538;48.884;8.696;2022-12-07T13:11:27;98710.72;;;5.06;100.00
22743;BME280;11538;48.884;8.696;2022-12-07T13:17:00;98708.03;;;4.96;100.00
22743;BME280;11538;48.884;8.696;2022-12-07T13:19:53;98694.84;;;4.89;100.00
22743;BME280;11538;48.884;8.696;2022-12-07T13:25:07;98694.03;;;4.94;100.00
22743;BME280;11538;48.884;8.696;2022-12-07T13:27:37;98696.69;;;4.83;100.00
22743;BME280;11538;48.884;8.696;2022-12-07T13:30:14;98694.56;;;4.86;100.00
22743;BME280;11538;48.884;8.696;2022-12-07T13:32:42;98692.38;;;4.82;100.00
22743;BME280;11538;48.884;8.696;2022-12-07T13:35:47;98698.84;;;4.87;100.00
22743;BME280;11538;48.884;8.696;2022-12-07T13:38:25;98694.56;;;4.86;100.00
22743;BME280;11538;48.884;8.696;2022-12-07T13:44:33;98686.75;;;4.79;100.00
22743;BME280;11538;48.884;8.696;2022-12-07T13:46:41;98686.97;;;4.72;100.00
22743;BME280;11538;48.884;8.696;2022-12-07T13:49:22;98686.41;;;4.65;100.00
22743;BME280;11538;48.884;8.696;2022-12-07T13:51:51;98686.41;;;4.65;100.00
22743;BME280;11538;48.884;8.696;2022-12-07T13:54:18;98694.47;;;4.65;100.00
22743;BME280;11538;48.884;8.696;2022-12-07T13:56:53;98691.78;;;4.60;100.00
22743;BME280;11538;48.884;8.696;2022-12-07T13:59:24;98684.81;;;4.64;100.00
22743;BME280;11538;48.884;8.696;2022-12-07T14:01:52;98686.19;;;4.66;100.00
22743;BME280;11538;48.884;8.696;2022-12-07T14:06:58;98693.19;;;4.73;100.00
22743;BME280;11538;48.884;8.696;2022-12-07T14:09:26;98684.81;;;4.64;100.00
22743;BME280;11538;48.884;8.696;2022-12-07T14:11:55;98686.41;;;4.60;100.00
22743;BME280;11538;48.884;8.696;2022-12-07T14:14:25;98689.94;;;4.65;100.00
22743;BME280;11538;48.884;8.696;2022-12-07T14:17:17;98690.44;;;4.62;100.00
22743;BME280;11538;48.884;8.696;2022-12-07T14:19:49;98687.44;;;4.53;100.00
22743;BME280;11538;48.884;8.696;2022-12-07T14:27:56;98688.50;;;4.47;100.00
22743;BME280;11538;48.884;8.696;2022-12-07T14:30:30;98687.19;;;4.55;100.00
22743;BME280;11538;48.884;8.696;2022-12-07T14:33:00;98691.72;;;4.49;100.00
22743;BME280;11538;48.884;8.696;2022-12-07T14:35:28;98689.53;;;4.41;100.00
22743;BME280;11538;48.884;8.696;2022-12-07T14:37:55;98692.75;;;4.38;100.00
22743;BME280;11538;48.884;8.696;2022-12-07T14:40:24;98694.63;;;4.37;100.00
22743;BME280;11538;48.884;8.696;2022-12-07T14:42:55;98689.53;;;4.41;100.00
22743;BME280;11538;48.884;8.696;2022-12-07T14:45:23;98693.03;;;4.42;100.00
22743;BME280;11538;48.884;8.696;2022-12-07T14:47:50;98691.41;;;4.41;100.00
22743;BME280;11538;48.884;8.696;2022-12-07T14:50:41;98697.84;;;4.39;100.00
22743;BME280;11538;48.884;8.696;2022-12-07T14:53:35;98702.44;;;4.39;100.00
22743;BME280;11538;48.884;8.696;2022-12-07T14:56:03;98699.75;;;4.39;100.00
22743;BME280;11538;48.884;8.696;2022-12-07T14:58:32;98697.03;;;4.34;100.00
22743;BME280;11538;48.884;8.696;2022-12-07T15:00:59;98700.50;;;4.34;100.00
22743;BME280;11538;48.884;8.696;2022-12-07T15:03:26;98697.59;;;4.36;100.00
22743;BME280;11538;48.884;8.696;2022-12-07T15:05:53;98699.47;;;4.41;100.00
22743;BME280;11538;48.884;8.696;2022-12-07T15:08:20;98695.16;;;4.39;100.00
22743;BME280;11538;48.884;8.696;2022-12-07T15:10:47;98695.13;;;4.34;100.00
22743;BME280;11538;48.884;8.696;2022-12-07T15:13:14;98701.34;;;4.35;100.00
22743;BME280;11538;48.884;8.696;2022-12-07T15:15:59;98694.88;;;4.31;100.00
22743;BME280;11538;48.884;8.696;2022-12-07T15:18:27;98695.38;;;4.28;100.00